ESOK/KSD METAR and TAF weather

Enter ICAO airport designator
Station Type Date Time Source
ESOK METAR 2019/04/18 20:20 UTC NOAA

ESOK 182020Z AUTO 24002KT 9999 NCD 10/M01 Q1036


Station Type Date Time Source
ESOK Decoded METAR 2019/04/18 20:20 UTC NOAA

Karlstad , Sweden (ESOK) 59-26-41N 013-20-15E
Apr 18, 2019 - 04:20 PM EDT / 2019.04.18 2020 UTC
Wind: from the WSW (240 degrees) at 2 MPH (2 KT):0
Visibility: greater than 7 mile(s):0
Temperature: 50 F (10 C)
Dew Point: 30 F (-1 C)
Relative Humidity: 46%
Pressure (altimeter): 30.59 in. Hg (1036 hPa)
ob: ESOK 182020Z AUTO 24002KT 9999 NCD 10/M01 Q1036
cycle: 20

Station Type Date Time Source
ESOK TAF 2017/05/22 06:33 UTC NOAA

TAF ESOK 220530Z 2206/2224 28006KT CAVOK

Example: see airport list